Date,TemperatureHighF,TemperatureAvgF,TemperatureLowF,DewpointHighF,DewpointAvgF,DewpointLowF,HumidityHigh,HumidityAvg,HumidityLow,PressureMaxIn,PressureMinIn,WindSpeedMaxMPH,WindSpeedAvgMPH,GustSpeedMaxMPH,PrecipitationSumIn
2013-1-1,62.5,56.1,44.6,61.0,54.4,43.0,97,94,89,30.09,29.89,6,2,12,1.19
2013-1-2,44.5,40.6,36.7,43.0,38.1,33.0,95,91,86,30.24,30.08,5,2,12,0.00
2013-1-3,49.0,38.4,33.2,33.0,29.9,28.0,87,73,46,30.39,30.23,7,1,10,0.00
2013-1-4,55.5,42.0,31.4,35.0,30.1,26.0,89,66,35,30.46,30.33,5,1,8,0.00
2013-1-5,49.9,42.8,37.7,42.0,37.1,34.0,94,81,59,30.38,30.22,5,1,6,0.06
2013-1-6,55.6,45.0,39.3,45.0,41.4,37.0,96,88,65,30.29,30.20,5,1,8,0.26
2013-1-7,58.7,44.1,32.9,41.0,37.2,32.0,96,79,46,30.33,30.17,3,1,7,0.00
2013-1-8,63.1,53.6,41.8,57.0,49.7,39.0,97,87,76,30.20,30.07,6,1,9,0.74
2013-1-9,66.7,62.0,56.6,66.0,61.3,56.0,98,97,96,30.17,30.07,5,1,9,2.29
2013-1-10,68.6,65.1,61.6,67.0,64.0,61.0,97,96,93,30.14,29.90,7,2,12,1.09
2013-1-11,68.7,65.7,62.8,68.0,64.6,62.0,98,96,92,30.07,29.96,4,1,7,0.24
2013-1-12,75.8,70.4,67.9,69.0,67.4,66.0,98,90,77,30.00,29.86,8,4,13,0.00
2013-1-13,72.8,61.1,42.8,70.0,58.8,41.0,95,92,81,30.09,29.79,9,3,17,0.71
2013-1-14,42.6,39.0,33.9,42.0,37.9,33.0,96,95,94,30.17,30.04,9,2,11,1.45
2013-1-15,40.7,38.2,35.2,40.0,37.4,34.0,97,96,95,30.10,29.97,6,1,8,1.18
2013-1-16,35.5,34.3,33.3,35.0,33.3,32.0,96,96,95,30.13,30.01,7,2,10,0.19
2013-1-17,51.6,39.4,32.6,37.0,34.3,31.0,96,83,54,30.42,30.12,13,2,15,0.02
2013-1-18,58.6,41.8,31.3,37.0,32.6,27.0,96,74,30,30.53,30.38,6,1,11,0.00
2013-1-19,61.3,43.5,29.7,46.0,37.8,29.0,96,82,54,30.38,30.22,5,0,9,0.00
2013-1-20,66.2,47.8,33.9,45.0,38.6,33.0,97,75,34,30.25,30.12,4,0,6,0.00
2013-1-21,64.5,49.2,37.4,47.0,41.2,36.0,94,76,48,30.21,30.12,4,0,7,0.00
2013-1-22,63.1,46.4,37.2,42.0,36.2,29.0,88,70,44,30.35,30.20,5,1,8,0.00
2013-1-23,70.5,55.5,42.6,50.0,44.9,39.0,91,71,41,30.36,30.23,6,1,9,0.00
2013-1-24,72.6,60.1,50.8,60.0,54.5,48.0,93,82,61,30.30,30.17,9,1,12,0.00
2013-1-25,75.3,62.9,52.9,59.0,55.6,51.0,95,78,52,30.20,30.07,11,1,17,0.00
2013-1-26,72.4,60.9,54.0,61.0,57.1,53.0,97,88,65,30.22,30.14,3,0,5,0.00
2013-1-27,73.3,60.7,52.6,60.0,55.8,51.0,97,85,58,30.25,30.15,8,2,10,0.00
2013-1-28,75.0,64.6,58.1,65.0,60.6,56.0,95,87,62,30.22,30.07,5,2,10,0.00
2013-1-29,79.0,70.3,65.1,68.0,65.9,63.0,95,86,64,30.07,29.70,13,4,19,0.00
2013-1-30,71.9,54.3,35.6,68.0,45.8,31.0,94,75,44,30.12,29.60,11,3,21,0.79
2013-1-31,60.3,45.2,31.6,35.0,29.7,24.0,91,60,27,30.30,30.13,6,1,9,0.00
2013-2-1,60.0,47.2,40.2,36.0,32.3,29.0,81,59,33,30.41,30.28,5,1,10,0.00
2013-2-2,69.5,52.3,36.5,52.0,41.1,27.0,93,67,47,30.32,30.14,10,1,17,0.07
2013-2-3,67.5,52.3,39.6,49.0,38.7,29.0,96,67,24,30.26,30.10,7,1,11,0.00
2013-2-4,56.7,49.9,42.5,50.0,41.7,35.0,88,74,56,30.09,29.93,2,0,5,0.00
2013-2-5,71.8,59.6,52.7,60.0,54.9,51.0,97,86,58,30.02,29.91,3,0,5,0.00
2013-2-6,68.0,59.2,52.6,60.0,56.3,52.0,97,90,72,30.10,29.95,5,1,7,0.44
2013-2-7,69.0,59.7,51.7,59.0,56.5,51.0,97,89,69,29.94,29.81,4,1,11,0.66
2013-2-8,62.6,56.5,48.3,59.0,53.2,45.0,97,89,80,30.18,29.93,9,1,11,0.00
2013-2-9,64.5,52.1,38.9,55.0,47.7,37.0,94,85,69,30.23,30.03,6,2,9,0.00
2013-2-10,68.8,62.5,57.2,67.0,61.0,55.0,97,95,92,30.03,29.81,8,2,14,1.66
2013-2-11,60.8,54.2,51.1,60.0,53.2,50.0,97,96,93,30.14,29.94,6,2,11,3.06
2013-2-12,56.6,53.9,51.5,56.0,53.1,51.0,98,97,94,30.06,29.72,6,2,11,0.74
2013-2-13,52.9,47.3,35.4,51.0,42.8,34.0,95,84,67,30.06,29.83,7,2,15,0.01
2013-2-14,60.9,44.0,30.8,42.0,36.9,30.0,97,79,42,30.14,30.04,3,0,5,0.00
2013-2-15,64.5,48.9,33.3,42.0,37.7,32.0,96,69,38,30.17,30.06,7,1,12,0.00
2013-2-16,49.6,42.2,32.5,38.0,26.0,18.0,76,56,30,30.28,30.15,8,2,21,0.00
2013-2-17,61.6,45.1,28.5,39.0,30.2,24.0,87,59,36,30.34,30.17,6,2,13,0.00
2013-2-18,63.4,53.2,43.3,58.0,47.8,38.0,95,82,66,30.20,29.91,11,4,18,0.72
2013-2-19,61.3,53.4,40.5,59.0,40.6,28.0,96,66,32,30.22,29.92,7,2,12,0.10
2013-2-20,58.0,46.4,35.7,32.0,29.6,26.0,79,54,31,30.24,30.03,6,1,11,0.00
2013-2-21,68.3,57.1,46.2,67.0,48.1,28.0,96,74,48,30.03,29.71,11,3,17,2.07
2013-2-22,64.4,58.2,53.5,59.0,52.2,49.0,95,81,58,29.98,29.86,3,1,8,0.06
2013-2-23,62.7,53.9,45.1,52.0,48.5,42.0,92,82,64,29.95,29.84,6,1,8,0.00
2013-2-24,70.6,54.2,38.1,55.0,44.0,37.0,94,72,40,29.99,29.70,5,1,10,0.16
2013-2-25,65.7,60.8,55.7,62.0,58.9,51.0,96,93,82,29.75,29.41,6,2,13,0.39
2013-2-26,56.1,47.6,39.7,47.0,37.8,35.0,93,70,51,29.91,29.51,13,3,18,0.00
2013-2-27,67.6,51.5,35.2,43.0,38.6,34.0,96,66,33,30.02,29.90,9,1,12,0.00
2013-2-28,51.6,44.2,37.2,37.0,32.3,27.0,86,65,39,30.12,30.02,9,1,12,0.00
2013-3-1,53.9,42.3,31.4,36.0,31.9,28.0,94,69,41,30.16,30.05,8,1,14,0.00
2013-3-2,41.6,34.3,27.5,31.0,26.5,24.0,92,74,52,30.25,30.14,7,1,13,0.00
2013-3-3,57.1,39.2,23.6,32.0,25.2,21.0,92,63,29,30.28,30.09,5,1,8,0.00
2013-3-4,71.1,55.7,38.4,56.0,45.4,33.0,87,70,49,30.09,29.87,11,4,17,0.00
2013-3-5,69.3,60.5,46.4,62.0,49.5,28.0,90,70,35,30.18,29.86,7,2,16,0.00
2013-3-6,59.5,47.1,36.7,32.0,27.9,25.0,76,50,28,30.31,30.18,10,2,12,0.00
2013-3-7,64.5,47.8,32.5,40.0,34.1,29.0,88,63,33,30.35,30.21,4,1,6,0.00
2013-3-8,73.1,54.0,35.2,43.0,38.1,33.0,93,61,25,30.29,30.15,5,0,7,0.00
2013-3-9,70.0,60.0,50.1,58.0,50.6,42.0,88,72,55,30.14,29.92,7,2,13,0.00
2013-3-10,73.7,66.1,56.2,65.0,61.1,54.0,94,84,69,29.94,29.79,14,4,20,0.14
2013-3-11,58.3,48.7,40.2,54.0,41.7,37.0,95,79,47,30.01,29.85,8,2,13,1.60
2013-3-12,65.5,48.7,33.6,41.0,36.7,32.0,95,68,33,30.22,30.01,5,1,9,0.00
2013-3-13,63.0,51.0,39.5,38.0,30.5,19.0,88,51,19,30.38,30.22,8,2,15,0.00
2013-3-14,70.2,49.9,33.7,41.0,33.0,26.0,88,58,26,30.43,30.26,6,1,6,0.00
2013-3-15,77.2,60.4,43.9,48.0,42.3,38.0,88,56,27,30.26,30.07,6,1,13,0.00
2013-3-16,77.5,63.1,50.8,57.0,51.7,48.0,91,69,41,30.07,29.89,10,2,14,0.00
2013-3-17,77.7,65.5,54.4,64.0,58.3,52.0,95,79,55,29.94,29.76,7,2,12,0.01
2013-3-18,84.4,71.8,60.9,67.0,64.3,59.0,95,79,51,29.90,29.69,7,2,15,0.62
2013-3-19,74.5,60.5,47.2,58.0,42.4,37.0,92,56,27,30.03,29.90,8,2,12,0.00
2013-3-20,67.3,56.9,44.1,41.0,35.1,27.0,64,46,23,30.15,29.99,6,1,13,0.00
2013-3-21,64.0,51.8,41.3,42.0,34.3,25.0,82,54,32,30.06,29.83,6,1,8,0.00
2013-3-22,63.3,57.5,53.0,57.0,51.5,42.0,89,80,65,29.89,29.75,5,2,8,0.02
2013-3-23,71.1,64.3,60.7,67.0,62.8,58.0,97,94,87,29.80,29.55,6,1,6,0.19
2013-3-24,65.2,55.2,41.8,64.0,46.7,31.0,97,76,39,29.99,29.56,11,2,17,0.01
2013-3-25,55.3,43.4,33.1,30.0,25.8,20.0,81,54,27,30.26,30.00,12,2,17,0.01
2013-3-26,53.0,41.3,30.3,29.0,26.1,23.0,85,57,34,30.38,30.26,7,1,12,0.00
2013-3-27,64.2,45.2,29.0,36.0,28.8,26.0,91,59,27,30.43,30.26,5,1,8,0.00
2013-3-28,72.9,54.5,34.5,43.0,36.5,32.0,92,56,24,30.35,30.19,4,1,6,0.00
2013-3-29,76.9,59.4,42.0,54.0,45.5,39.0,92,64,33,30.28,30.13,5,1,10,0.00
2013-3-30,76.1,62.5,50.0,58.0,53.9,48.0,94,75,47,30.16,29.94,8,2,13,0.05
2013-3-31,69.4,60.8,56.7,64.0,58.4,55.0,97,92,81,30.00,29.81,5,1,18,0.26
2013-4-1,75.8,62.1,53.0,59.0,54.3,49.0,97,79,40,30.07,29.92,4,1,7,0.00
2013-4-2,79.6,63.4,49.2,57.0,52.1,47.0,93,70,42,30.09,29.95,5,1,9,0.00
2013-4-3,63.4,53.3,47.7,56.0,50.6,46.0,96,91,71,30.01,29.80,9,2,15,1.15
2013-4-4,52.6,49.1,45.9,50.0,47.3,44.0,96,93,87,30.02,29.90,3,1,8,0.01
2013-4-5,66.4,51.6,44.2,50.0,46.0,42.0,94,83,54,30.16,30.02,5,2,11,0.00
2013-4-6,74.6,58.7,42.1,54.0,48.2,41.0,96,72,42,30.12,29.99,6,2,12,0.00
2013-4-7,76.5,65.7,52.9,60.0,56.3,52.0,96,74,50,30.07,29.94,8,2,12,0.00
2013-4-8,79.9,69.9,60.2,66.0,62.2,59.0,96,78,55,29.98,29.90,8,3,13,0.00
2013-4-9,83.9,75.1,69.6,72.0,68.9,66.0,91,81,62,29.97,29.87,13,4,16,0.00
2013-4-10,81.6,74.5,70.9,71.0,68.7,67.0,90,82,66,29.91,29.77,9,3,13,0.00
2013-4-11,75.8,62.4,47.7,71.0,59.4,46.0,95,90,81,29.83,29.60,8,2,12,0.74
2013-4-12,74.5,56.5,41.1,50.0,45.1,40.0,97,71,31,29.99,29.81,5,1,9,0.00
2013-4-13,80.1,64.8,47.5,54.0,47.4,44.0,90,58,29,30.02,29.85,6,1,9,0.00
2013-4-14,74.6,62.8,56.2,64.0,58.4,54.0,96,86,64,29.88,29.71,10,1,11,1.82
2013-4-15,82.9,69.3,58.9,73.0,65.6,58.0,97,89,69,29.94,29.79,5,1,8,0.00
2013-4-16,84.4,76.1,70.7,72.0,70.7,69.0,96,84,61,30.04,29.93,8,2,10,0.01
2013-4-17,85.1,75.7,70.1,72.0,69.4,68.0,93,82,61,30.05,29.90,6,2,10,0.00
2013-4-18,79.7,72.7,56.5,72.0,68.4,54.0,93,86,75,29.90,29.71,8,3,15,0.23
2013-4-19,59.9,51.2,43.5,54.0,42.6,39.0,94,74,47,30.17,29.83,6,2,13,0.13
2013-4-20,70.0,54.3,38.4,46.0,40.3,35.0,93,64,35,30.25,30.10,7,1,9,0.00
2013-4-21,74.8,58.9,43.1,49.0,43.8,40.0,90,61,33,30.22,30.08,4,0,8,0.00
2013-4-22,80.3,64.3,46.5,61.0,51.8,44.0,91,67,38,30.12,29.97,4,1,6,0.00
2013-4-23,82.4,71.1,63.7,66.0,63.6,61.0,90,78,55,30.05,29.92,5,2,9,0.00
2013-4-24,68.6,60.9,52.3,66.0,58.4,49.0,95,91,87,30.19,29.96,5,2,9,0.94
2013-4-25,68.8,56.8,48.9,52.0,47.9,42.0,95,75,41,30.30,30.18,5,1,9,0.00
2013-4-26,79.4,64.7,51.0,63.0,54.5,44.0,91,71,50,30.26,30.15,4,1,7,0.00
2013-4-27,80.9,71.5,63.5,68.0,65.5,61.0,95,82,64,30.16,30.02,5,1,9,0.00
2013-4-28,73.8,69.3,62.6,69.0,65.3,60.0,96,87,72,30.07,29.94,5,1,12,0.05
2013-4-29,85.8,69.3,55.2,65.0,59.0,54.0,97,74,38,30.00,29.88,2,0,4,0.00
2013-4-30,76.6,66.8,60.6,68.0,63.9,59.0,97,91,73,29.95,29.88,2,0,7,0.30
2013-5-1,78.9,67.7,64.3,70.0,65.1,62.0,97,91,71,29.94,29.86,6,1,11,0.11
2013-5-2,74.6,66.4,63.7,69.0,64.3,62.0,96,92,79,29.98,29.88,5,1,6,0.05
2013-5-3,65.4,54.6,40.8,64.0,52.6,40.0,96,93,85,30.06,29.90,5,1,11,0.33
2013-5-4,71.1,54.3,35.8,49.0,41.8,35.0,97,68,34,30.04,29.88,6,1,10,0.00
2013-5-5,60.5,52.6,45.3,50.0,44.1,41.0,91,74,53,30.05,29.89,10,1,13,0.00
2013-5-6,72.8,59.2,45.8,55.0,49.4,43.0,91,72,48,30.05,29.95,8,1,12,0.00
2013-5-7,79.0,65.0,51.1,59.0,55.5,50.0,96,74,46,30.07,29.98,4,1,9,0.00
2013-5-8,83.9,68.9,53.9,63.0,58.3,52.0,95,72,42,30.13,30.04,5,0,7,0.00
2013-5-9,83.9,71.9,59.1,67.0,63.2,57.0,96,76,48,30.13,30.02,5,2,8,0.00
2013-5-10,78.2,68.4,62.3,68.0,64.4,61.0,96,87,65,30.07,29.82,4,1,13,2.14
2013-5-11,76.7,68.2,61.4,71.0,64.1,60.0,96,87,68,30.08,29.96,6,0,7,0.06
2013-5-12,77.3,64.9,54.3,61.0,56.3,48.0,97,76,53,30.19,30.07,6,1,10,0.00
2013-5-13,80.6,63.3,48.5,56.0,47.9,43.0,88,62,33,30.32,30.18,5,0,5,0.00
2013-5-14,86.4,70.2,55.7,60.0,56.1,53.0,90,65,34,30.29,30.15,4,1,8,0.00
2013-5-15,84.2,70.5,57.5,64.0,59.4,55.0,93,70,46,30.20,30.03,3,1,7,0.00
2013-5-16,81.3,70.8,58.8,67.0,63.0,57.0,95,78,55,30.05,29.90,5,1,9,0.03
2013-5-17,85.8,76.7,70.1,73.0,70.1,67.0,94,81,64,30.02,29.94,5,2,7,0.00
2013-5-18,89.3,79.1,72.4,73.0,71.2,70.0,92,78,57,30.06,29.98,5,1,8,0.00
2013-5-19,89.3,78.3,70.6,74.0,71.3,68.0,94,80,58,30.02,29.93,4,1,7,0.00
2013-5-20,90.5,80.4,73.5,74.0,72.4,71.0,92,78,57,30.01,29.89,5,2,8,0.00
2013-5-21,88.9,79.9,73.0,73.0,71.7,70.0,94,77,54,29.96,29.80,5,2,9,0.00
2013-5-22,82.4,72.8,65.4,72.0,68.0,64.0,96,86,64,29.97,29.87,4,1,10,1.70
2013-5-23,89.2,77.4,65.3,74.0,70.1,64.0,97,80,54,30.06,29.96,3,0,7,0.00
2013-5-24,85.7,76.1,68.7,71.0,68.4,63.0,95,78,59,30.18,30.04,5,1,9,0.00
2013-5-25,86.6,72.3,60.6,64.0,59.3,54.0,82,66,46,30.26,30.14,2,0,5,0.00
2013-5-26,85.9,73.1,60.8,67.0,61.9,58.0,93,71,40,30.20,30.11,2,0,5,0.00
2013-5-27,88.3,75.3,61.5,70.0,64.9,60.0,94,73,46,30.14,30.02,5,1,8,0.00
2013-5-28,88.2,76.0,64.9,70.0,65.9,62.0,92,72,51,30.08,29.98,4,1,8,0.00
2013-5-29,84.2,75.9,70.3,76.0,71.0,66.0,94,85,69,30.03,29.94,7,1,10,0.22
2013-5-30,85.9,77.5,73.3,76.0,72.8,71.0,94,85,67,30.02,29.93,5,2,12,0.04
2013-5-31,88.8,79.4,73.8,76.0,73.6,72.0,95,83,64,30.02,29.93,5,2,8,0.02
2013-6-1,92.3,81.4,74.1,75.0,73.5,72.0,93,78,55,29.98,29.89,4,1,6,0.00
2013-6-2,83.8,75.5,66.6,74.0,70.6,65.0,96,85,66,30.04,29.88,4,1,10,1.04
2013-6-3,87.8,77.4,70.2,75.0,71.5,69.0,95,83,61,29.95,29.86,4,1,10,0.00
2013-6-4,92.7,80.7,70.1,77.0,73.0,68.0,95,79,51,29.95,29.85,3,0,6,0.00
2013-6-5,91.4,79.9,72.4,78.0,73.6,69.0,96,82,55,29.94,29.78,4,1,8,0.04
2013-6-6,88.3,75.2,69.9,75.0,71.0,66.0,95,87,65,29.87,29.77,7,1,19,0.21
2013-6-7,85.0,74.0,68.9,71.0,68.6,67.0,95,84,58,29.91,29.79,3,1,7,0.01
2013-6-8,89.4,74.6,66.1,74.0,68.7,65.0,96,83,54,29.98,29.90,2,0,6,0.87
2013-6-9,89.8,76.2,68.1,76.0,70.8,67.0,97,85,54,29.99,29.89,7,1,9,0.57
2013-6-10,91.8,78.9,69.2,75.0,71.9,68.0,97,81,52,30.02,29.96,4,1,7,0.00
2013-6-11,93.1,82.4,73.6,77.0,74.5,72.0,97,79,53,30.11,30.01,3,0,6,0.00
2013-6-12,94.5,83.1,74.0,77.0,73.7,71.0,96,76,48,30.10,30.00,3,1,6,0.00
2013-6-13,92.9,82.4,73.5,77.0,74.2,72.0,95,78,54,30.06,29.89,6,1,9,0.00
2013-6-14,89.3,80.9,72.5,77.0,72.7,67.0,92,77,58,29.96,29.89,7,1,10,0.00
2013-6-15,94.1,79.8,65.8,73.0,68.7,64.0,92,71,45,30.02,29.94,4,0,4,0.00
2013-6-16,93.0,81.9,72.2,78.0,74.7,70.0,95,80,59,30.05,29.96,6,1,7,0.00
2013-6-17,92.8,82.7,74.8,76.0,73.5,71.0,93,75,51,30.02,29.91,7,1,11,0.00
2013-6-18,90.4,79.9,70.2,76.0,72.9,68.0,95,80,60,30.01,29.89,7,1,11,1.08
2013-6-19,88.9,76.9,69.9,75.0,71.9,69.0,97,86,63,30.04,29.95,5,1,6,0.09
2013-6-20,91.6,78.2,70.6,77.0,72.4,69.0,97,84,57,30.12,30.02,4,1,6,0.55
2013-6-21,93.1,79.2,68.1,76.0,71.8,67.0,97,80,50,30.14,30.06,3,0,5,0.01
2013-6-22,93.4,79.6,70.7,75.0,71.9,69.0,95,79,47,30.12,30.00,4,0,13,0.35
2013-6-23,93.5,80.1,70.3,75.0,72.4,69.0,97,79,50,30.09,30.00,3,0,5,0.01
2013-6-24,87.8,76.4,71.9,76.0,72.9,70.0,97,89,65,30.14,30.04,3,0,8,0.54
2013-6-25,90.0,79.5,71.6,79.0,74.4,71.0,97,85,61,30.12,30.00,5,1,10,0.05
2013-6-26,92.5,82.0,71.7,76.0,73.9,70.0,96,78,55,30.07,29.95,3,1,8,0.00
2013-6-27,93.1,82.9,73.7,76.0,74.4,72.0,95,77,52,30.03,29.92,3,1,8,0.00
2013-6-28,92.8,82.2,72.0,78.0,75.2,69.0,91,80,59,29.94,29.75,5,1,14,0.12
2013-6-29,89.4,76.6,70.1,79.0,72.4,67.0,96,87,64,29.83,29.70,4,1,12,0.00
2013-6-30,90.4,78.4,67.3,72.0,66.8,61.0,96,71,38,29.83,29.73,9,1,11,0.00
2013-7-1,87.4,76.1,65.9,67.0,65.3,63.0,92,71,46,29.94,29.82,4,1,11,0.00
2013-7-2,87.6,75.6,65.4,69.0,65.9,63.0,93,74,50,30.02,29.92,3,0,8,0.00
2013-7-3,87.7,73.5,66.5,72.0,67.9,64.0,96,84,51,30.05,29.96,5,0,7,0.43
2013-7-4,88.5,75.9,67.6,74.0,70.6,67.0,97,85,54,30.01,29.92,6,1,7,0.01
2013-7-5,80.7,74.6,69.8,76.0,71.3,68.0,94,89,82,30.03,29.95,4,0,8,0.14
2013-7-6,87.3,75.6,68.6,76.0,71.3,67.0,97,87,64,30.04,29.95,3,0,5,0.00
2013-7-7,90.0,77.5,73.3,78.0,73.6,72.0,95,88,63,30.10,30.00,4,0,6,0.40
2013-7-8,91.3,78.6,72.0,77.0,73.5,71.0,97,85,57,30.17,30.07,3,0,7,0.00
2013-7-9,93.8,79.5,72.2,77.0,73.9,71.0,96,84,56,30.20,30.07,4,0,6,0.72
2013-7-10,92.3,82.3,74.0,77.0,75.1,73.0,97,81,58,30.11,29.96,4,1,9,0.00
2013-7-11,89.4,79.2,70.2,78.0,74.8,69.0,97,87,70,29.99,29.94,4,1,8,0.61
2013-7-12,91.4,78.4,69.6,77.0,71.1,67.0,98,80,47,29.96,29.88,4,1,10,0.01
2013-7-13,87.0,77.5,68.1,74.0,69.9,66.0,93,78,62,29.96,29.89,6,1,8,0.00
2013-7-14,90.5,75.9,69.2,78.0,71.3,68.0,95,86,61,30.03,29.92,6,0,10,0.00
2013-7-15,89.5,76.2,68.5,77.0,71.6,67.0,96,86,60,30.14,30.01,6,0,6,0.00
2013-7-16,85.8,76.8,70.9,76.0,73.0,70.0,97,88,69,30.20,30.11,4,1,9,0.03
2013-7-17,91.1,78.7,71.4,79.0,74.2,71.0,97,87,58,30.24,30.13,5,0,18,0.26
2013-7-18,90.9,77.3,69.7,74.0,71.4,68.0,97,84,52,30.19,30.02,5,1,10,0.09
2013-7-19,93.2,79.8,69.9,76.0,72.1,68.0,97,79,44,30.09,29.95,2,0,5,0.00
2013-7-20,92.1,76.7,70.3,76.0,71.8,69.0,96,86,57,30.00,29.93,3,0,6,0.10
2013-7-21,88.1,77.5,71.2,76.0,73.4,70.0,97,87,65,30.05,29.98,5,1,14,0.18
2013-7-22,91.3,77.7,73.3,78.0,73.7,71.0,95,88,63,30.06,29.98,8,1,11,0.06
2013-7-23,91.0,82.1,75.5,78.0,75.6,74.0,96,82,60,30.05,29.91,6,1,11,0.00
2013-7-24,88.5,80.8,72.9,76.0,74.0,71.0,94,81,61,29.96,29.88,6,1,14,0.01
2013-7-25,90.8,78.8,72.2,76.0,72.1,68.0,96,82,55,30.05,29.92,4,1,6,0.00
2013-7-26,91.3,78.7,66.0,74.0,69.7,64.0,95,76,52,30.08,29.96,3,0,7,0.00
2013-7-27,82.7,77.5,74.5,78.0,74.6,73.0,97,90,79,29.97,29.85,4,1,11,1.00
2013-7-28,88.8,78.4,71.1,77.0,73.0,70.0,97,84,64,30.02,29.90,5,0,6,0.00
2013-7-29,94.5,81.4,72.2,77.0,74.0,71.0,97,80,53,30.11,30.01,3,0,5,0.00
2013-7-30,95.1,83.3,73.7,79.0,75.8,73.0,96,79,54,30.15,30.05,5,1,7,0.00
2013-7-31,95.7,83.8,75.8,77.0,74.5,70.0,92,75,45,30.11,29.96,4,1,8,0.00
2013-8-1,94.5,81.0,75.4,79.0,75.4,73.0,94,84,57,30.03,29.91,4,0,7,0.31
2013-8-2,96.4,82.1,72.7,78.0,73.9,70.0,97,78,52,30.01,29.94,3,0,8,0.00
2013-8-3,94.3,82.8,74.9,78.0,75.3,73.0,95,79,53,30.07,29.99,4,0,7,0.00
2013-8-4,96.9,84.6,74.8,79.0,74.8,72.0,96,75,46,30.10,29.98,4,1,9,0.00
2013-8-5,95.8,83.1,75.5,79.0,75.3,73.0,93,79,50,30.05,29.94,9,1,9,0.00
2013-8-6,97.0,85.3,75.6,77.0,74.2,72.0,95,72,46,30.01,29.89,6,1,8,0.00
2013-8-7,99.3,86.1,75.9,78.0,74.2,71.0,94,70,41,29.98,29.87,4,1,6,0.00
2013-8-8,99.0,84.9,75.4,77.0,75.0,73.0,93,74,47,29.97,29.87,4,1,8,0.00
2013-8-9,96.6,81.3,75.3,78.0,75.1,74.0,95,82,52,30.05,29.93,4,0,7,0.23
2013-8-10,95.8,82.5,75.2,79.0,74.2,69.0,97,78,44,30.09,30.00,3,0,9,0.00
2013-8-11,93.9,82.0,73.0,76.0,74.2,72.0,97,79,50,30.12,30.05,4,1,8,0.00
2013-8-12,95.9,79.9,73.0,81.0,73.7,71.0,96,83,49,30.11,30.00,4,1,13,0.15
2013-8-13,91.1,77.4,71.3,79.0,74.0,71.0,98,90,64,30.05,29.93,5,1,13,3.23
2013-8-14,86.2,74.8,70.8,78.0,73.0,70.0,99,94,75,30.02,29.92,2,0,6,0.60
2013-8-15,86.8,76.9,69.3,74.0,71.5,69.0,97,84,58,30.02,29.93,3,0,6,0.00
2013-8-16,88.8,77.2,68.0,74.0,70.6,67.0,96,81,57,30.01,29.92,2,0,7,0.38
2013-8-17,81.8,73.6,68.0,74.0,70.1,67.0,98,89,73,30.01,29.96,5,1,10,0.00
2013-8-18,79.0,72.6,68.4,73.0,70.1,68.0,97,92,77,30.05,29.98,7,2,10,0.00
2013-8-19,87.6,76.5,71.4,75.0,72.1,70.0,97,87,63,30.07,29.98,3,0,6,0.00
2013-8-20,93.1,77.5,69.2,76.0,72.4,68.0,98,86,51,30.08,30.00,2,0,5,0.03
2013-8-21,88.8,77.9,70.9,78.0,73.5,70.0,98,87,64,30.14,30.05,4,0,5,0.02
2013-8-22,92.2,81.1,72.4,78.0,74.1,72.0,98,81,56,30.11,29.98,2,0,5,0.00
2013-8-23,92.0,80.1,71.6,77.0,73.4,71.0,98,81,55,30.03,29.94,5,1,8,0.00
2013-8-24,87.7,76.6,70.6,76.0,72.5,70.0,97,88,63,30.13,29.99,3,0,10,0.01
2013-8-25,87.4,77.3,69.4,77.0,73.1,68.0,97,87,65,30.19,30.10,4,0,6,0.06
2013-8-26,89.5,78.4,71.1,75.0,70.5,67.0,97,79,51,30.22,30.11,6,1,8,0.00
2013-8-27,87.0,75.2,64.7,67.0,65.6,63.0,95,74,49,30.15,30.05,5,0,8,0.00
2013-8-28,87.4,74.7,63.5,69.0,65.9,62.0,96,76,49,30.12,30.03,2,0,6,0.00
2013-8-29,90.6,76.9,65.7,70.0,67.5,64.0,94,75,46,30.10,29.99,3,0,5,0.00
2013-8-30,93.8,79.5,67.9,73.0,69.8,66.0,94,75,47,30.05,29.93,3,0,5,0.00
2013-8-31,94.1,81.4,71.8,75.0,72.2,69.0,92,76,49,29.99,29.87,3,0,6,0.00
2013-9-1,95.3,82.6,72.1,76.0,73.0,69.0,95,75,43,29.96,29.85,4,1,8,0.00
2013-9-2,94.3,81.8,73.4,76.0,73.9,72.0,95,78,53,29.98,29.86,5,1,9,0.00
2013-9-3,93.9,80.8,74.6,78.0,74.1,70.0,95,81,55,30.00,29.88,3,1,8,0.00
2013-9-4,93.5,81.3,71.2,77.0,73.2,70.0,96,78,51,30.08,29.95,3,0,6,0.00
2013-9-5,93.5,80.1,71.4,77.0,73.4,70.0,97,81,52,30.12,30.03,5,0,7,0.00
2013-9-6,94.0,80.3,71.1,77.0,72.8,70.0,97,80,51,30.11,29.99,2,0,8,0.00
2013-9-7,93.7,80.2,70.4,74.0,71.0,68.0,95,76,43,30.07,29.96,5,0,6,0.00
2013-9-8,93.3,80.1,68.1,73.0,69.4,67.0,96,73,44,30.02,29.93,3,0,7,0.00
2013-9-9,94.1,80.7,68.4,73.0,69.9,67.0,95,72,45,30.06,29.96,4,0,6,0.00
2013-9-10,94.1,80.2,69.7,76.0,71.7,68.0,95,78,48,30.13,30.02,8,1,8,0.05
2013-9-11,92.9,80.8,71.3,74.0,71.1,68.0,96,75,46,30.14,30.03,5,0,7,0.00
2013-9-12,94.0,80.0,68.2,73.0,68.6,66.0,96,72,42,30.07,29.92,4,0,6,0.00
2013-9-13,92.9,78.8,72.3,73.0,71.1,68.0,95,79,46,29.95,29.83,3,0,12,0.00
2013-9-14,89.9,76.7,66.2,72.0,65.5,62.0,95,71,43,29.99,29.90,7,1,9,0.00
2013-9-15,91.5,78.2,65.0,71.0,66.4,60.0,87,69,49,30.07,29.99,5,0,6,0.00
2013-9-16,93.1,80.4,69.9,75.0,70.8,68.0,96,75,45,30.09,30.00,6,1,9,0.00
2013-9-17,94.9,80.8,68.6,71.0,67.1,63.0,94,67,36,30.10,29.97,4,0,8,0.00
2013-9-18,93.1,78.1,69.6,75.0,70.2,66.0,96,78,51,30.09,29.98,4,1,8,0.19
2013-9-19,89.5,76.2,70.4,76.0,72.5,69.0,97,89,60,30.06,29.96,6,0,10,0.23
2013-9-20,90.1,78.3,72.8,77.0,74.6,72.0,98,89,61,30.01,29.80,6,1,8,0.18
2013-9-21,77.2,71.0,68.1,76.0,69.1,-99.9,98,96,94,29.82,29.76,10,-9,10,2.25
2013-9-22,80.4,69.7,60.9,69.0,61.1,56.0,98,77,44,29.87,29.79,11,2,11,0.00
2013-9-23,89.2,73.9,60.5,74.0,66.6,57.0,92,79,61,29.87,29.80,3,0,6,0.00
2013-9-24,79.1,75.3,70.2,77.0,73.8,70.0,98,95,85,29.86,29.78,5,0,17,1.02
2013-9-25,87.8,74.9,65.7,73.0,66.5,59.0,99,79,38,29.85,29.78,8,1,10,0.00
2013-9-26,86.7,72.8,61.4,68.0,64.6,60.0,97,78,49,29.96,29.83,5,0,9,0.00
2013-9-27,86.1,75.2,66.8,73.0,68.5,65.0,98,81,56,30.04,29.95,3,0,6,0.00
2013-9-28,85.9,73.6,64.9,68.0,65.5,62.0,95,77,51,30.10,30.00,2,0,5,0.00
2013-9-29,74.9,68.8,62.9,72.0,66.4,61.0,97,92,82,30.06,29.96,1,0,2,0.08
2013-9-30,81.2,72.6,66.4,75.0,69.5,65.0,96,90,76,29.98,29.91,3,0,5,0.04
2013-10-1,84.4,74.5,67.6,74.0,70.3,67.0,98,87,67,30.05,29.96,2,0,5,0.00
2013-10-2,85.5,75.2,69.9,75.0,71.5,69.0,97,89,65,30.07,29.97,3,0,5,0.02
2013-10-3,88.4,77.2,70.7,75.0,72.3,70.0,98,86,59,30.05,29.94,2,0,6,0.00
2013-10-4,88.8,77.1,71.1,74.0,71.7,70.0,98,85,58,30.05,29.96,5,1,7,0.00
2013-10-5,85.7,76.9,70.7,78.0,72.5,70.0,98,87,68,30.02,29.90,4,1,8,0.03
2013-10-6,73.5,68.4,56.6,72.0,64.7,54.0,98,88,68,29.98,29.86,7,1,9,0.06
2013-10-7,73.7,61.4,52.4,57.0,53.2,50.0,93,76,53,30.08,29.97,6,1,13,0.00
2013-10-8,75.6,61.5,51.1,58.0,53.5,50.0,95,77,46,30.09,30.01,5,1,8,0.00
2013-10-9,82.8,66.1,51.2,66.0,59.0,50.0,96,80,49,30.12,30.03,5,0,5,0.00
2013-10-10,81.1,69.9,64.5,69.0,65.9,63.0,97,88,62,30.13,30.00,2,0,5,0.00
2013-10-11,86.5,73.1,64.4,72.0,68.2,63.0,98,86,56,30.07,29.96,2,0,6,0.00
2013-10-12,88.3,74.3,64.5,74.0,69.1,64.0,98,85,53,30.09,29.99,3,0,7,0.00
2013-10-13,85.8,74.9,67.6,73.0,69.7,67.0,97,85,58,30.18,30.06,3,0,9,0.00
2013-10-14,83.6,72.2,64.5,69.0,65.4,63.0,96,81,54,30.14,30.02,3,0,6,0.00
2013-10-15,85.5,72.5,61.8,70.0,65.4,61.0,96,80,53,30.07,29.94,4,0,6,0.00
2013-10-16,82.7,75.0,70.1,72.0,70.0,67.0,95,85,68,30.00,29.90,4,1,7,0.00
2013-10-17,73.1,64.6,55.5,71.0,62.9,55.0,97,94,90,30.03,29.92,3,0,7,0.08
2013-10-18,71.1,60.9,51.1,60.0,55.8,50.0,98,84,63,30.10,29.95,6,1,12,0.00
2013-10-19,71.6,62.2,53.5,61.0,57.8,52.0,97,86,65,30.07,29.94,5,1,9,0.15
2013-10-20,74.0,57.3,46.5,56.0,50.9,46.0,96,81,49,30.11,30.00,5,0,7,0.00
2013-10-21,72.8,60.0,48.1,63.0,55.8,47.0,96,86,65,30.09,29.98,3,0,4,0.00
2013-10-22,73.6,62.8,53.6,63.0,58.6,52.0,97,87,61,30.04,29.96,3,1,9,0.00
2013-10-23,72.5,58.3,48.2,53.0,48.5,43.0,97,74,35,30.17,30.03,4,1,9,0.00
2013-10-24,79.6,61.3,45.5,58.0,51.2,44.0,94,73,45,30.26,30.12,5,1,9,0.00
2013-10-25,65.3,54.2,46.3,53.0,43.3,38.0,87,69,42,30.44,30.26,8,2,13,0.00
2013-10-26,76.7,55.8,40.6,53.0,43.7,38.0,90,68,35,30.34,30.17,3,0,4,0.00
2013-10-27,71.0,61.4,49.8,60.0,54.5,48.0,97,79,57,30.17,30.06,4,1,6,0.00
2013-10-28,80.6,69.9,61.4,67.0,63.3,59.0,93,80,59,30.20,30.08,3,1,8,0.00
2013-10-29,79.2,68.2,57.9,67.0,62.3,57.0,97,83,58,30.25,30.16,5,1,8,0.00
2013-10-30,75.9,68.8,62.4,68.0,65.1,61.0,97,88,74,30.21,30.03,3,1,8,0.00
2013-10-31,75.2,70.1,64.4,71.0,68.1,64.0,97,93,86,30.02,29.74,8,2,13,1.23
2013-11-1,73.5,62.6,51.2,63.0,56.3,50.0,97,82,46,29.96,29.84,4,1,7,0.00
2013-11-2,68.8,57.6,48.0,53.0,47.8,42.0,97,73,38,30.21,29.95,6,1,14,0.00
2013-11-3,66.4,51.1,41.3,48.0,43.9,39.0,94,79,46,30.28,30.15,4,0,9,0.00
2013-11-4,70.6,55.5,42.3,58.0,50.2,41.0,96,83,59,30.30,30.18,3,0,7,0.00
2013-11-5,74.7,63.8,57.5,61.0,57.5,54.0,95,80,62,30.25,30.13,4,1,8,0.00
2013-11-6,79.1,66.4,55.3,70.0,63.2,54.0,97,90,70,30.15,30.05,4,1,8,0.31
2013-11-7,64.2,52.6,43.6,63.0,46.1,39.0,97,80,51,30.37,30.12,13,2,15,0.01
2013-11-8,62.3,49.6,39.1,46.0,40.2,36.0,89,72,44,30.39,30.23,8,1,13,0.00
2013-11-9,68.0,55.7,44.7,55.0,47.6,41.0,89,75,56,30.29,30.20,2,0,4,0.00
2013-11-10,71.1,58.5,50.5,55.0,50.6,45.0,94,77,40,30.32,30.22,5,1,8,0.00
2013-11-11,74.2,57.5,44.9,55.0,49.9,44.0,96,78,46,30.28,30.17,3,0,5,0.00
2013-11-12,64.1,49.1,35.1,55.0,44.3,30.0,94,83,70,30.55,30.22,6,2,15,0.00
2013-11-13,53.3,39.2,30.4,32.0,26.9,23.0,86,64,34,30.59,30.46,6,2,13,0.00
2013-11-14,61.5,46.5,28.5,46.0,37.2,26.0,91,72,55,30.46,30.18,3,0,5,0.00
2013-11-15,69.9,58.3,50.3,63.0,54.8,45.0,97,88,75,30.18,30.01,3,0,6,1.03
2013-11-16,76.0,67.6,60.4,69.0,64.9,59.0,98,91,77,30.07,29.95,5,1,8,0.01
2013-11-17,78.1,72.1,68.2,74.0,70.4,67.0,98,94,85,29.97,29.86,5,1,8,0.01
2013-11-18,76.4,66.7,54.3,72.0,49.5,35.0,98,58,27,30.14,29.97,7,2,13,0.00
2013-11-19,62.0,51.4,39.5,41.0,35.0,28.0,84,56,29,30.21,30.10,9,2,12,0.00
2013-11-20,71.7,51.3,36.2,46.0,40.3,33.0,91,70,34,30.16,30.05,3,0,6,0.00
2013-11-21,67.1,59.8,47.5,64.0,58.0,45.0,97,94,88,30.23,30.14,3,1,7,0.00
2013-11-22,69.2,64.8,62.0,66.0,63.7,61.0,97,96,87,30.30,30.17,5,0,12,0.60
2013-11-23,61.8,51.1,41.2,61.0,49.9,37.0,98,95,86,30.40,30.21,8,2,16,0.17
2013-11-24,48.2,39.9,33.5,37.0,28.5,25.0,84,65,43,30.48,30.35,8,2,16,0.00
2013-11-25,44.3,41.0,36.7,44.0,36.5,26.0,97,85,66,30.35,29.98,5,1,11,0.77
2013-11-26,47.2,42.3,37.7,47.0,41.3,36.0,98,96,93,30.11,29.80,8,2,14,0.94
2013-11-27,44.6,35.8,26.3,36.0,28.2,24.0,94,76,47,30.45,30.11,7,2,13,0.00
2013-11-28,47.5,33.3,24.0,33.0,26.4,22.0,94,78,45,30.53,30.43,3,0,4,0.00
2013-11-29,59.3,39.6,26.7,35.0,29.5,25.0,95,72,30,30.59,30.46,5,0,6,0.00
2013-11-30,65.7,43.9,28.2,39.0,32.3,27.0,95,71,26,30.49,30.29,3,0,5,0.00
2013-12-1,69.6,52.6,34.6,53.0,45.2,33.0,96,78,52,30.30,30.02,2,0,6,0.00
2013-12-2,72.2,61.6,53.2,63.0,56.9,49.0,96,85,72,30.01,29.75,5,1,11,0.00
2013-12-3,76.1,67.6,61.8,66.0,63.5,61.0,97,87,66,29.80,29.69,4,1,11,0.00
2013-12-4,78.7,71.7,67.9,69.0,67.4,66.0,95,87,69,29.93,29.80,6,2,9,0.00
2013-12-5,80.0,73.7,69.9,71.0,69.9,68.0,95,88,72,30.01,29.90,6,2,9,0.00
2013-12-6,73.1,47.5,35.5,71.0,46.1,34.0,97,95,82,30.29,29.93,6,1,11,0.30
2013-12-7,36.0,33.9,31.4,35.0,32.5,30.0,96,94,90,30.40,30.29,5,2,11,0.00
2013-12-8,44.9,40.5,35.9,44.0,39.8,35.0,98,97,97,30.30,30.08,2,0,5,3.77
2013-12-9,46.9,44.0,38.1,45.0,43.1,37.0,98,97,93,30.20,30.10,5,1,9,0.09
2013-12-10,46.7,37.4,31.2,37.0,33.3,29.0,96,85,62,30.43,30.20,15,2,15,0.01
2013-12-11,56.7,42.9,29.9,48.0,37.0,28.0,95,80,63,30.48,30.36,5,0,9,0.00
2013-12-12,53.2,39.9,31.7,34.0,28.1,22.0,88,66,30,30.58,30.41,6,1,10,0.00
2013-12-13,57.6,45.2,31.3,52.0,36.9,24.0,90,73,59,30.41,29.95,3,1,8,0.00
2013-12-14,67.9,57.0,43.1,61.0,53.7,40.0,97,89,73,30.13,29.85,7,2,15,0.58
2013-12-15,48.8,40.0,30.4,40.0,34.1,29.0,95,80,64,30.34,30.13,7,1,12,0.00
2013-12-16,61.2,41.6,27.4,40.0,32.9,26.0,97,76,34,30.39,30.27,4,0,5,0.00
2013-12-17,64.1,45.9,30.7,43.0,37.5,29.0,96,76,40,30.37,30.27,5,0,8,0.00
2013-12-18,67.3,48.9,33.7,43.0,38.5,33.0,97,71,39,30.41,30.24,4,1,6,0.00
2013-12-19,69.4,58.0,43.3,58.0,51.6,37.0,90,80,65,30.24,30.05,5,2,11,0.00
2013-12-20,74.7,67.4,60.5,68.0,63.6,57.0,94,88,77,30.06,29.95,7,2,10,0.01
2013-12-21,76.3,71.0,58.4,70.0,67.0,56.0,94,87,78,29.94,29.70,11,4,19,0.69
2013-12-22,64.1,58.3,49.9,59.0,56.1,48.0,97,92,81,30.20,29.82,8,0,8,0.18
2013-12-23,49.0,39.1,30.0,47.0,34.6,28.0,94,84,67,30.52,30.19,12,2,14,0.00
2013-12-24,49.0,35.7,27.4,30.0,27.6,26.0,93,75,45,30.58,30.43,9,1,13,0.00
2013-12-25,48.5,35.7,25.6,33.0,27.3,23.0,90,74,43,30.46,30.34,3,0,7,0.00
2013-12-26,56.8,41.8,30.3,39.0,33.0,28.0,91,73,46,30.45,30.33,3,0,8,0.00
2013-12-27,52.2,44.2,35.5,37.0,34.4,29.0,92,70,42,30.48,30.32,6,1,7,0.00
2013-12-28,47.1,44.7,41.8,46.0,42.1,33.0,97,91,62,30.33,30.00,2,0,7,0.69
2013-12-29,58.1,48.0,41.9,46.0,43.3,41.0,97,85,54,30.16,30.01,4,0,5,0.01
2013-12-30,52.4,46.0,39.6,47.0,43.3,36.0,96,90,81,30.38,30.14,4,0,7,0.00
2013-12-31,45.7,40.0,35.3,38.0,35.6,33.0,90,84,69,30.48,30.34,5,1,8,0.00
2014-1-1,56.3,48.6,40.6,52.0,45.9,38.0,97,90,81,30.34,30.06,3,0,6,0.05
2014-1-2,55.9,47.4,31.7,55.0,40.8,24.0,98,79,55,30.40,29.99,9,2,17,0.23